AirNav   Jet Aviation Boston
 
 813 users online  

WY29 Vowers Ranch Airport
Chugwater, Wyoming, USA

GOING TO CHUGWATER?


FAA INFORMATION EFFECTIVE 29 MARCH 2018

Location

FAA Identifier: WY29
Lat/Long: 41-37-19.9090N / 104-47-06.8820W
41-37.331817N / 104-47.114700W
41.6221969 / -104.7852450
(estimated)
Elevation: 5550 ft. / 1692 m (estimated)
Variation: 12E (1985)
From city: 8 miles S of CHUGWATER, WY
Time zone: UTC -6 (UTC -7 during Standard Time)
Zip code: 82009

Airport Operations

Airport use: Private use. Permission required prior to landing
Activation date: 06/1991
Control tower: no
ARTCC: DENVER CENTER
FSS: CASPER FLIGHT SERVICE STATION
Attendance: UNATNDD
Wind indicator: yes
Segmented circle: no

Nearby radio navigation aids

VOR radial/distance  VOR name  Freq  Var
CYSr346/24.7CHEYENNE VORTAC113.1013E

 
NDB name  Hdg/Dist  Freq  Var  ID
CAMP GUERNSEY174/37.228011EGYZ --. -.-- --..
TORRINGTON216/38.829311ETOR - --- .-.

Airport Services

Runway Information

Runway 6/24

Dimensions: 4000 x 60 ft. / 1219 x 18 m
Surface: gravel
RUNWAY 6  RUNWAY 24
Traffic pattern: leftleft

Airport Ownership and Management from official FAA records

Ownership: Privately-owned
Owner: VOWERS RANCH INC
2560 RD. 242
CHEYENNE, WY 82009
Phone 307-422-3561
Manager: KARL WILKERSON
2560 RD. 242
CHEYENNE, WY 82009
Phone 307-422-3561

Airport Operational Statistics

Aircraft based on the field: 2
Single engine airplanes: 2
    

Instrument Procedures

There are no published instrument procedures at WY29.

Some nearby airports with instrument procedures:

KEAN - Phifer Airfield (27 nm N)
KCYS - Cheyenne Regional Airport/Jerry Olson Field (28 nm S)
KGUR - Camp Guernsey Airport (38 nm N)
KTOR - Torrington Municipal Airport (39 nm NE)
KLAR - Laramie Regional Airport (44 nm SW)
 
Loc | Ops | Rwys | IFR | FBO | Links
Com | Nav | Svcs | Stats | Notes

AirNav Hotels Sweepstakes
 
Area around WY29 (Vowers Ranch Airport)
 
Road maps at: MapQuest Bing Google
 
Aerial photo
No photo
 
Sectional chart

 
Airport distance calculator
Flying to Vowers Ranch Airport? Find the distance to fly.

From to WY29

Sunrise and sunset
Times for 25-Apr-2018
 Local
(UTC-6)
 Zulu
(UTC)
Morning civil twilight05:3511:35
Sunrise06:0512:05
Sunset19:4901:49
Evening civil twilight20:1902:19

Current date and time
Zulu (UTC)  25-Apr-2018 11:40:27
Local (UTC-6)  25-Apr-2018 05:40:27
 
METAR
KEAN 
27nm N 
251115Z AUTO 18007KT 10SM CLR M01/M05 A3032 RMK AO2 T10111052
KCYS 
28nm S 
251053Z AUTO 27006KT 10SM CLR M05/M06 A3033 RMK AO2 SLP302 T10501061
KFEW 
30nm S 
251058Z AUTO M 10SM CLR M06/M07 A3035 RMK AO2 SLP317 T10621070 $
KTOR 
39nm NE 
251053Z AUTO 00000KT 10SM CLR M03/M03 A3034 RMK AO2 SLP293 I1000 T10281028
TAF
KCYS 
28nm S 
250520Z 2506/2606 34005KT P6SM SCT040 FM251800 27010G16KT P6SM SKC FM260000 21009KT P6SM SKC
NOTAMs
Click for the latest NOTAMs
NOTAMs are issued by the DoD/FAA and will open in a separate window not controlled by AirNav.

 

 
 

Would you like to see your business listed on this page?

 If your business provides an interesting product or service to pilots, flight crews, aircraft, or users of the Vowers Ranch Airport, you should consider listing it here.  To start the listing process, click on the button below
 
Add a business
 

Other Pages about Vowers Ranch Airport

Update a link
 
Copyright © AirNav, LLC. All rights reserved. Privacy Policy  Contact